地図

経路データ

SID SEASON NUMBER BASIN SUBBASIN NAME ISO_TIME NATURE LAT LON WMO_WIND WMO_PRES WMO_AGENCY TRACK_TYPE DIST2LAND LANDFALL IFLAG USA_AGENCY USA_ATCF_ID USA_LAT USA_LON USA_RECORD USA_STATUS USA_WIND USA_PRES USA_SSHS USA_R34_NE USA_R34_SE USA_R34_SW USA_R34_NW USA_R50_NE USA_R50_SE USA_R50_SW USA_R50_NW USA_R64_NE USA_R64_SE USA_R64_SW USA_R64_NW USA_POCI USA_ROCI USA_RMW USA_EYE TOKYO_LAT TOKYO_LON TOKYO_GRADE TOKYO_WIND TOKYO_PRES TOKYO_R50_DIR TOKYO_R50_LONG TOKYO_R50_SHORT TOKYO_R30_DIR TOKYO_R30_LONG TOKYO_R30_SHORT TOKYO_LAND CMA_LAT CMA_LON CMA_CAT CMA_WIND CMA_PRES HKO_LAT HKO_LON HKO_CAT HKO_WIND HKO_PRES NEWDELHI_LAT NEWDELHI_LON NEWDELHI_GRADE NEWDELHI_WIND NEWDELHI_PRES NEWDELHI_CI NEWDELHI_DP NEWDELHI_POCI REUNION_LAT REUNION_LON REUNION_TYPE REUNION_WIND REUNION_PRES REUNION_TNUM REUNION_CI REUNION_RMW REUNION_R34_NE REUNION_R34_SE REUNION_R34_SW REUNION_R34_NW REUNION_R50_NE REUNION_R50_SE REUNION_R50_SW REUNION_R50_NW REUNION_R64_NE REUNION_R64_SE REUNION_R64_SW REUNION_R64_NW BOM_LAT BOM_LON BOM_TYPE BOM_WIND BOM_PRES BOM_TNUM BOM_CI BOM_RMW BOM_R34_NE BOM_R34_SE BOM_R34_SW BOM_R34_NW BOM_R50_NE BOM_R50_SE BOM_R50_SW BOM_R50_NW BOM_R64_NE BOM_R64_SE BOM_R64_SW BOM_R64_NW BOM_ROCI BOM_POCI BOM_EYE BOM_POS_METHOD BOM_PRES_METHOD NADI_LAT NADI_LON NADI_CAT NADI_WIND NADI_PRES WELLINGTON_LAT WELLINGTON_LON WELLINGTON_WIND WELLINGTON_PRES DS824_LAT DS824_LON DS824_STAGE DS824_WIND DS824_PRES TD9636_LAT TD9636_LON TD9636_STAGE TD9636_WIND TD9636_PRES TD9635_LAT TD9635_LON TD9635_WIND TD9635_PRES TD9635_ROCI NEUMANN_LAT NEUMANN_LON NEUMANN_CLASS NEUMANN_WIND NEUMANN_PRES MLC_LAT MLC_LON MLC_CLASS MLC_WIND MLC_PRES USA_GUST BOM_GUST BOM_GUST_PER REUNION_GUST REUNION_GUST_PER USA_SEAHGT USA_SEARAD_NE USA_SEARAD_SE USA_SEARAD_SW USA_SEARAD_NW STORM_SPEED STORM_DIR
1930185N15132 1930 29 WP MM NOT_NAMED 1930-07-03 22:00:00 NR 14.9000 131.900 main 755 745 __________O___ -1 14.9000 131.900 7 4 268
1930185N15132 1930 29 WP MM NOT_NAMED 1930-07-04 00:00:00 NR 14.8947 131.766 main 745 725 __________P___ -1 14.8947 131.766 7 4 268
1930185N15132 1930 29 WP MM NOT_NAMED 1930-07-04 03:00:00 NR 14.8887 131.564 main 725 706 __________P___ -1 14.8887 131.564 7 4 269
1930185N15132 1930 29 WP MM NOT_NAMED 1930-07-04 06:00:00 NR 14.8878 131.364 main 706 686 __________P___ -1 14.8878 131.364 7 4 271
1930185N15132 1930 29 WP MM NOT_NAMED 1930-07-04 09:00:00 NR 14.8952 131.166 main 686 676 __________P___ -1 14.8952 131.166 7 4 273
1930185N15132 1930 29 WP MM NOT_NAMED 1930-07-04 10:00:00 NR 14.9000 131.100 main 676 667 __________O___ -1 14.9000 131.100 7 4 276
1930185N15132 1930 29 WP MM NOT_NAMED 1930-07-04 12:00:00 NR 14.9145 130.969 main 667 648 __________P___ -1 14.9145 130.969 7 4 280
1930185N15132 1930 29 WP MM NOT_NAMED 1930-07-04 15:00:00 NR 14.9547 130.773 main 653 634 __________P___ -1 14.9547 130.773 7 4 287
1930185N15132 1930 29 WP MM NOT_NAMED 1930-07-04 18:00:00 NR 15.0283 130.574 main 634 621 __________P___ -1 15.0283 130.574 7 4 296
1930185N15132 1930 29 WP MM NOT_NAMED 1930-07-04 21:00:00 NR 15.1478 130.370 main 621 618 __________P___ -1 15.1478 130.370 7 5 303
1930185N15132 1930 29 WP MM NOT_NAMED 1930-07-04 22:00:00 NR 15.2000 130.300 main 618 606 __________O___ -1 15.2000 130.300 7 6 307
1930185N15132 1930 29 WP MM NOT_NAMED 1930-07-05 00:00:00 NR 15.3163 130.143 main 606 601 __________P___ -1 15.3163 130.143 7 6 311
1930185N15132 1930 29 WP MM NOT_NAMED 1930-07-05 03:00:00 NR 15.5346 129.900 main 601 599 __________P___ -1 15.5346 129.900 7 7 316
1930185N15132 1930 29 WP MM NOT_NAMED 1930-07-05 06:00:00 NR 15.7972 129.666 main 606 596 __________P___ -1 15.7972 129.666 7 7 323
1930185N15132 1930 29 WP MM NOT_NAMED 1930-07-05 09:00:00 NR 16.0947 129.460 main 600 590 __________P___ -1 16.0947 129.460 7 7 327
1930185N15132 1930 29 WP MM NOT_NAMED 1930-07-05 10:00:00 NR 16.2000 129.400 main 595 590 __________O___ -1 16.2000 129.400 7 7 336
1930185N15132 1930 29 WP MM NOT_NAMED 1930-07-05 12:00:00 NR 16.4340 129.305 main 595 597 __________P___ -1 16.4340 129.305 7 8 342
1930185N15132 1930 29 WP MM NOT_NAMED 1930-07-05 15:00:00 NR 16.8108 129.193 main 608 608 __________P___ -1 16.8108 129.193 7 8 346
1930185N15132 1930 29 WP MM NOT_NAMED 1930-07-05 18:00:00 NR 17.1826 129.106 main 624 624 __________P___ -1 17.1826 129.106 7 7 347
1930185N15132 1930 29 WP MM NOT_NAMED 1930-07-05 21:00:00 NR 17.5086 129.027 main 636 636 __________P___ -1 17.5086 129.027 7 6 346
1930185N15132 1930 29 WP MM NOT_NAMED 1930-07-05 22:00:00 NR 17.6000 129.000 main 643 642 __________O___ -1 17.6000 129.000 7 5 340
1930185N15132 1930 29 WP MM NOT_NAMED 1930-07-06 00:00:00 NR 17.7373 128.936 main 642 642 __________P___ -1 17.7373 128.936 7 4 332
1930185N15132 1930 29 WP MM NOT_NAMED 1930-07-06 03:00:00 NR 17.8866 128.840 main 649 649 __________P___ -1 17.8866 128.840 7 3 324
1930185N15132 1930 29 WP MM NOT_NAMED 1930-07-06 06:00:00 NR 17.9901 128.741 main 649 649 __________P___ -1 17.9901 128.741 7 3 314
1930185N15132 1930 29 WP MM NOT_NAMED 1930-07-06 09:00:00 NR 18.0727 128.637 main 649 649 __________P___ -1 18.0727 128.637 7 3 310
1930185N15132 1930 29 WP MM NOT_NAMED 1930-07-06 10:00:00 NR 18.1000 128.600 main 649 649 __________O___ -1 18.1000 128.600 7 3 314
1930185N15132 1930 29 WP MM NOT_NAMED 1930-07-06 12:00:00 NR 18.1723 128.530 main 649 641 __________P___ -1 18.1723 128.530 7 3 316
1930185N15132 1930 29 WP MM NOT_NAMED 1930-07-06 15:00:00 NR 18.2745 128.419 main 641 631 __________P___ -1 18.2745 128.419 7 3 312
1930185N15132 1930 29 WP MM NOT_NAMED 1930-07-06 18:00:00 NR 18.3720 128.296 main 633 622 __________P___ -1 18.3720 128.296 7 3 307
1930185N15132 1930 29 WP MM NOT_NAMED 1930-07-06 21:00:00 NR 18.4679 128.153 main 622 611 __________P___ -1 18.4679 128.153 7 3 305
1930185N15132 1930 29 WP MM NOT_NAMED 1930-07-06 22:00:00 NR 18.5000 128.100 main 611 601 __________O___ -1 18.5000 128.100 7 4 303
1930185N15132 1930 29 WP MM NOT_NAMED 1930-07-07 00:00:00 NR 18.5693 127.989 main 601 580 __________P___ -1 18.5693 127.989 7 4 302
1930185N15132 1930 29 WP MM NOT_NAMED 1930-07-07 03:00:00 NR 18.6732 127.804 main 580 560 __________P___ -1 18.6732 127.804 7 4 299
1930185N15132 1930 29 WP MM NOT_NAMED 1930-07-07 06:00:00 NR 18.7745 127.599 main 560 539 __________P___ -1 18.7745 127.599 7 5 296
1930185N15132 1930 29 WP MM NOT_NAMED 1930-07-07 09:00:00 NR 18.8700 127.377 main 540 529 __________P___ -1 18.8700 127.377 7 5 294
1930185N15132 1930 29 WP MM NOT_NAMED 1930-07-07 10:00:00 NR 18.9000 127.300 main 529 519 __________O___ -1 18.9000 127.300 7 4 292
1930185N15132 1930 29 WP MM NOT_NAMED 1930-07-07 12:00:00 NR 18.9529 127.163 main 520 489 __________P___ -1 18.9529 127.163 7 4 291
1930185N15132 1930 29 WP MM NOT_NAMED 1930-07-07 15:00:00 NR 19.0258 126.945 main 489 469 __________P___ -1 19.0258 126.945 7 5 288
1930185N15132 1930 29 WP MM NOT_NAMED 1930-07-07 18:00:00 NR 19.0970 126.699 main 469 440 __________P___ -1 19.0970 126.699 7 5 286
1930185N15132 1930 29 WP MM NOT_NAMED 1930-07-07 21:00:00 NR 19.1727 126.409 main 440 430 __________P___ -1 19.1727 126.409 7 6 285
1930185N15132 1930 29 WP MM NOT_NAMED 1930-07-07 22:00:00 NR 19.2000 126.300 main 430 402 __________O___ -1 19.2000 126.300 7 7 286
1930185N15132 1930 29 WP MM NOT_NAMED 1930-07-08 00:00:00 NR 19.2691 126.046 main 402 364 __________P___ -1 19.2691 126.046 7 8 286
1930185N15132 1930 29 WP MM NOT_NAMED 1930-07-08 03:00:00 NR 19.3792 125.621 main 364 328 __________P___ -1 19.3792 125.621 7 9 285
1930185N15132 1930 29 WP MM NOT_NAMED 1930-07-08 06:00:00 NR 19.4855 125.173 main 328 285 __________P___ -1 19.4855 125.173 7 9 283
1930185N15132 1930 29 WP MM NOT_NAMED 1930-07-08 09:00:00 NR 19.5756 124.737 main 285 276 __________P___ -1 19.5756 124.737 7 8 282
1930185N15132 1930 29 WP MM NOT_NAMED 1930-07-08 10:00:00 NR 19.6000 124.600 main 276 258 __________O___ -1 19.6000 124.600 7 7 280
1930185N15132 1930 29 WP MM NOT_NAMED 1930-07-08 12:00:00 NR 19.6331 124.381 main 258 238 __________P___ -1 19.6331 124.381 7 6 277
1930185N15132 1930 29 WP MM NOT_NAMED 1930-07-08 15:00:00 NR 19.6643 124.079 main 238 214 __________P___ -1 19.6643 124.079 7 6 275
1930185N15132 1930 29 WP MM NOT_NAMED 1930-07-08 18:00:00 NR 19.6817 123.774 main 214 185 __________P___ -1 19.6817 123.774 7 6 273
1930185N15132 1930 29 WP MM NOT_NAMED 1930-07-08 21:00:00 NR 19.6949 123.430 main 185 179 __________P___ -1 19.6949 123.430 7 7 272
1930185N15132 1930 29 WP MM NOT_NAMED 1930-07-08 22:00:00 NR 19.7000 123.300 main 179 162 __________O___ -1 19.7000 123.300 7 8 274
1930185N15132 1930 29 WP MM NOT_NAMED 1930-07-09 00:00:00 NR 19.7220 122.998 main 162 148 __________P___ -1 19.7220 122.998 7 9 274
1930185N15132 1930 29 WP MM NOT_NAMED 1930-07-09 03:00:00 NR 19.7551 122.496 main 158 156 __________P___ -1 19.7551 122.496 7 10 274
1930185N15132 1930 29 WP MM NOT_NAMED 1930-07-09 06:00:00 NR 19.7825 121.952 main 156 144 __________P___ -1 19.7825 121.952 7 10 272
1930185N15132 1930 29 WP MM NOT_NAMED 1930-07-09 09:00:00 NR 19.7983 121.388 main 144 137 __________P___ -1 19.7983 121.388 7 11 271
1930185N15132 1930 29 WP MM NOT_NAMED 1930-07-09 10:00:00 NR 19.8000 121.200 main 137 134 __________O___ -1 19.8000 121.200 7 10 273
1930185N15132 1930 29 WP MM NOT_NAMED 1930-07-09 12:00:00 NR 19.8280 120.861 main 134 134 __________P___ -1 19.8280 120.861 7 10 274
1930185N15132 1930 29 WP MM NOT_NAMED 1930-07-09 15:00:00 NR 19.8586 120.346 main 154 154 __________P___ -1 19.8586 120.346 7 10 271
1930185N15132 1930 29 WP MM NOT_NAMED 1930-07-09 18:00:00 NR 19.8452 119.804 main 170 170 __________P___ -1 19.8452 119.804 7 11 264
1930185N15132 1930 29 WP MM NOT_NAMED 1930-07-09 21:00:00 NR 19.7538 119.212 main 214 206 __________P___ -1 19.7538 119.212 7 12 259
1930185N15132 1930 29 WP MM NOT_NAMED 1930-07-09 22:00:00 NR 19.7000 119.000 main 222 222 __________O___ -1 19.7000 119.000 7 13 249
1930185N15132 1930 29 WP MM NOT_NAMED 1930-07-10 00:00:00 NR 19.5223 118.555 main 243 252 __________P___ -1 19.5223 118.555 7 15 244
1930185N15132 1930 29 WP MM NOT_NAMED 1930-07-10 03:00:00 NR 19.1733 117.837 main 308 305 __________P___ -1 19.1733 117.837 7 16 242
1930185N15132 1930 29 WP MM NOT_NAMED 1930-07-10 06:00:00 NR 18.7812 117.072 main 363 369 __________P___ -1 18.7812 117.072 7 17 243
1930185N15132 1930 29 WP MM NOT_NAMED 1930-07-10 09:00:00 NR 18.4089 116.273 main 432 442 __________P___ -1 18.4089 116.273 7 17 245
1930185N15132 1930 29 WP MM NOT_NAMED 1930-07-10 10:00:00 NR 18.3000 116.000 main 461 461 __________O___ -1 18.3000 116.000 7 18 251
1930185N15132 1930 29 WP MM NOT_NAMED 1930-07-10 12:00:00 NR 18.1212 115.383 main 483 405 __________P___ -1 18.1212 115.383 7 19 255
1930185N15132 1930 29 WP MM NOT_NAMED 1930-07-10 15:00:00 NR 17.8961 114.430 main 405 338 __________P___ -1 17.8961 114.430 7 18 257
1930185N15132 1930 29 WP MM NOT_NAMED 1930-07-10 18:00:00 NR 17.7270 113.534 main 338 277 __________P___ -1 17.7270 113.534 7 16 260
1930185N15132 1930 29 WP MM NOT_NAMED 1930-07-10 21:00:00 NR 17.6203 112.794 main 277 259 __________P___ -1 17.6203 112.794 7 13 262
1930185N15132 1930 29 WP MM NOT_NAMED 1930-07-10 22:00:00 NR 17.6000 112.600 main 259 232 __________O___ -1 17.6000 112.600 3 9 264
1930185N15132 1930 29 WP MM NOT_NAMED 1930-07-11 00:00:00 NR 17.5775 112.346 main 232 215 __________P___ -1 17.5775 112.346 3 5 270
1930185N15132 1930 29 WP MM NOT_NAMED 1930-07-11 03:00:00 NR 17.6023 112.142 main 215 209 __________P___ -1 17.6023 112.142 3 3 290
1930185N15132 1930 29 WP MM NOT_NAMED 1930-07-11 06:00:00 NR 17.6746 112.065 main 209 193 __________P___ -1 17.6746 112.065 3 2 325
1930185N15132 1930 29 WP MM NOT_NAMED 1930-07-11 09:00:00 NR 17.7684 112.022 main 193 193 __________P___ -1 17.7684 112.022 3 2 336
1930185N15132 1930 29 WP MM NOT_NAMED 1930-07-11 10:00:00 NR 17.8000 112.000 main 193 185 __________O___ -1 17.8000 112.000 4 3 303
1930185N15132 1930 29 WP MM NOT_NAMED 1930-07-11 12:00:00 NR 17.8467 111.899 main 185 161 __________P___ -1 17.8467 111.899 4 3 296
1930185N15132 1930 29 WP MM NOT_NAMED 1930-07-11 15:00:00 NR 17.9232 111.735 main 161 138 __________P___ -1 17.9232 111.735 4 4 295
1930185N15132 1930 29 WP MM NOT_NAMED 1930-07-11 18:00:00 NR 18.0020 111.541 main 138 115 __________P___ -1 18.0020 111.541 4 4 290
1930185N15132 1930 29 WP MM NOT_NAMED 1930-07-11 21:00:00 NR 18.0769 111.296 main 115 107 __________P___ -1 18.0769 111.296 4 5 287
1930185N15132 1930 29 WP MM NOT_NAMED 1930-07-11 22:00:00 NR 18.1000 111.200 main 107 92 __________O___ -1 18.1000 111.200 4 6 279
1930185N15132 1930 29 WP MM NOT_NAMED 1930-07-12 00:00:00 NR 18.1236 110.968 main 92 59 __________P___ -1 18.1236 110.968 4 7 275
1930185N15132 1930 29 WP MM NOT_NAMED 1930-07-12 03:00:00 NR 18.1522 110.570 main 59 24 __________P___ -1 18.1522 110.570 4 8 275
1930185N15132 1930 29 WP MM NOT_NAMED 1930-07-12 06:00:00 NR 18.1919 110.145 main 24 0 __________P___ -1 18.1919 110.145 4 8 278
1930185N15132 1930 29 WP MM NOT_NAMED 1930-07-12 09:00:00 NR 18.2646 109.730 main 0 0 __________P___ -1 18.2646 109.730 4 8 282
1930185N15132 1930 29 WP MM NOT_NAMED 1930-07-12 10:00:00 NR 18.3000 109.600 main 0 0 __________O___ -1 18.3000 109.600 4 8 293
1930185N15132 1930 29 WP MM NOT_NAMED 1930-07-12 12:00:00 NR 18.4121 109.359 main 0 0 __________P___ -1 18.4121 109.359 4 8 300
1930185N15132 1930 29 WP MM NOT_NAMED 1930-07-12 15:00:00 NR 18.6185 109.023 main 0 0 __________P___ -1 18.6185 109.023 4 7 305
1930185N15132 1930 29 WP MM NOT_NAMED 1930-07-12 18:00:00 NR 18.8402 108.724 main 0 0 __________P___ -1 18.8402 108.724 4 7 309
1930185N15132 1930 29 WP MM NOT_NAMED 1930-07-12 21:00:00 NR 19.0427 108.472 main 21 21 __________P___ -1 19.0427 108.472 4 6 310
1930185N15132 1930 29 WP MM NOT_NAMED 1930-07-12 22:00:00 NR 19.1000 108.400 main 30 30 __________O___ -1 19.1000 108.400 4 5 306
1930185N15132 1930 29 WP MM NOT_NAMED 1930-07-13 00:00:00 NR 19.1783 108.274 main 33 33 __________P___ -1 19.1783 108.274 4 4 303
1930185N15132 1930 29 WP MM NOT_NAMED 1930-07-13 03:00:00 NR 19.2645 108.129 main 52 52 __________P___ -1 19.2645 108.129 4 3 302
1930185N15132 1930 29 WP MM NOT_NAMED 1930-07-13 06:00:00 NR 19.3269 108.020 main 62 62 __________P___ -1 19.3269 108.020 4 2 301
1930185N15132 1930 29 WP MM NOT_NAMED 1930-07-13 09:00:00 NR 19.3811 107.930 main 74 74 __________P___ -1 19.3811 107.930 4 2 304
1930185N15132 1930 29 WP MM NOT_NAMED 1930-07-13 10:00:00 NR 19.4000 107.900 main 74 74 __________O___ -1 19.4000 107.900 4 2 300
1930185N15132 1930 29 WP MM NOT_NAMED 1930-07-13 12:00:00 NR 19.4342 107.833 main 84 84 __________P___ -1 19.4342 107.833 4 2 299
1930185N15132 1930 29 WP MM NOT_NAMED 1930-07-13 15:00:00 NR 19.4852 107.738 main 97 97 __________P___ -1 19.4852 107.738 4 2 304
1930185N15132 1930 29 WP MM NOT_NAMED 1930-07-13 18:00:00 NR 19.5525 107.643 main 110 110 __________P___ -1 19.5525 107.643 4 3 312
1930185N15132 1930 29 WP MM NOT_NAMED 1930-07-13 21:00:00 NR 19.6549 107.539 main 115 115 __________P___ -1 19.6549 107.539 4 3 317
1930185N15132 1930 29 WP MM NOT_NAMED 1930-07-13 22:00:00 NR 19.7000 107.500 main 115 100 __________O___ -1 19.7000 107.500 2 4 321
1930185N15132 1930 29 WP MM NOT_NAMED 1930-07-14 00:00:00 NR 19.8079 107.404 main 100 71 __________P___ -1 19.8079 107.404 2 5 322
1930185N15132 1930 29 WP MM NOT_NAMED 1930-07-14 03:00:00 NR 20.0075 107.246 main 71 53 __________P___ -1 20.0075 107.246 2 5 326
1930185N15132 1930 29 WP MM NOT_NAMED 1930-07-14 06:00:00 NR 20.2438 107.087 main 53 24 __________P___ -1 20.2438 107.087 2 6 330
1930185N15132 1930 29 WP MM NOT_NAMED 1930-07-14 09:00:00 NR 20.5076 106.942 main 24 15 __________P___ -1 20.5076 106.942 2 6 334
1930185N15132 1930 29 WP MM NOT_NAMED 1930-07-14 10:00:00 NR 20.6000 106.900 main 15 0 __________O___ -1 20.6000 106.900 2 6 338
1930185N15132 1930 29 WP MM NOT_NAMED 1930-07-14 12:00:00 NR 20.7898 106.826 main 0 0 __________P___ -1 20.7898 106.826 2 6 343
1930185N15132 1930 29 WP MM NOT_NAMED 1930-07-14 15:00:00 NR 21.0845 106.739 main 0 0 __________P___ -1 21.0845 106.739 2 6 346
1930185N15132 1930 29 WP MM NOT_NAMED 1930-07-14 18:00:00 NR 21.3881 106.672 main 0 0 __________P___ -1 21.3881 106.672 2 6 350
1930185N15132 1930 29 WP MM NOT_NAMED 1930-07-14 21:00:00 NR 21.6967 106.617 main 0 0 __________P___ -1 21.6967 106.617 2 6 351
1930185N15132 1930 29 WP MM NOT_NAMED 1930-07-14 22:00:00 NR 21.8000 106.600 main 0 __________O___ -1 21.8000 106.600 7 6 351

デジタル台風データ・検索

IBTrACS Databaseについて

本データベースは、米国NOAAが公開する1842年以降の世界の熱帯低気圧のベストトラックデータアーカイブInternational Best Track Archive for Climate Stewardship (IBTrACS)を、ウェブで閲覧しやすい形式に変換したものです。

最終更新日:2021-12-06